createdAt,value
2018-05-12T00:01:08.667Z,100.00
2018-05-12T00:03:37.635Z,100.00
2018-05-12T00:06:19.694Z,100.00
2018-05-12T00:08:50.404Z,100.00
2018-05-12T00:11:19.988Z,100.00
2018-05-12T00:13:49.150Z,100.00
2018-05-12T00:16:18.487Z,100.00
2018-05-12T00:18:47.374Z,100.00
2018-05-12T00:21:15.947Z,100.00
2018-05-12T00:23:44.492Z,100.00
2018-05-12T00:26:13.092Z,100.00
2018-05-12T00:28:41.632Z,100.00
2018-05-12T00:31:10.385Z,100.00
2018-05-12T00:33:38.806Z,100.00
2018-05-12T00:36:07.345Z,100.00
2018-05-12T00:38:36.088Z,100.00
2018-05-12T00:41:05.830Z,100.00
2018-05-12T00:43:34.918Z,100.00
2018-05-12T00:46:03.467Z,100.00
2018-05-12T00:48:32.594Z,100.00
2018-05-12T00:51:01.165Z,100.00
2018-05-12T00:53:29.811Z,100.00
2018-05-12T00:55:58.658Z,100.00
2018-05-12T00:58:27.134Z,100.00
2018-05-12T01:00:55.668Z,100.00
2018-05-12T01:03:24.283Z,100.00
2018-05-12T01:05:52.932Z,100.00
2018-05-12T01:08:21.711Z,100.00
2018-05-12T01:10:50.620Z,100.00
2018-05-12T01:13:19.479Z,100.00
2018-05-12T01:15:48.075Z,100.00
2018-05-12T01:18:16.618Z,100.00
2018-05-12T01:20:45.302Z,100.00
2018-05-12T01:23:13.756Z,100.00
2018-05-12T01:25:43.096Z,100.00
2018-05-12T01:28:11.991Z,100.00
2018-05-12T01:30:41.146Z,100.00
2018-05-12T01:33:09.870Z,100.00
2018-05-12T01:35:38.371Z,100.00
2018-05-12T01:38:07.008Z,100.00
2018-05-12T01:40:35.552Z,100.00
2018-05-12T01:43:04.075Z,100.00
2018-05-12T01:45:33.080Z,100.00
2018-05-12T01:48:01.660Z,100.00
2018-05-12T01:50:30.166Z,100.00
2018-05-12T01:52:58.874Z,100.00
2018-05-12T01:55:27.736Z,100.00
2018-05-12T01:57:56.621Z,100.00
2018-05-12T02:00:25.079Z,100.00
2018-05-12T02:02:53.704Z,100.00
2018-05-12T02:05:22.372Z,100.00
2018-05-12T02:07:52.047Z,100.00
2018-05-12T02:10:21.013Z,100.00
2018-05-12T02:12:49.647Z,100.00
2018-05-12T02:15:18.262Z,100.00
2018-05-12T02:17:46.687Z,100.00
2018-05-12T02:20:15.608Z,100.00
2018-05-12T02:22:44.177Z,100.00
2018-05-12T02:25:12.934Z,100.00
2018-05-12T02:27:41.526Z,100.00
2018-05-12T02:30:10.272Z,100.00
2018-05-12T02:32:38.714Z,100.00
2018-05-12T02:35:07.209Z,100.00
2018-05-12T02:37:35.671Z,100.00
2018-05-12T02:40:07.047Z,100.00
2018-05-12T02:42:35.485Z,100.00
2018-05-12T02:45:04.280Z,100.00
2018-05-12T02:47:33.089Z,100.00
2018-05-12T02:50:01.605Z,100.00
2018-05-12T02:52:30.169Z,100.00
2018-05-12T02:54:58.703Z,100.00
2018-05-12T02:57:27.272Z,100.00
2018-05-12T02:59:55.903Z,100.00
2018-05-12T03:02:24.447Z,100.00
2018-05-12T03:04:52.976Z,100.00
2018-05-12T03:07:22.491Z,100.00
2018-05-12T03:09:51.460Z,100.00
2018-05-12T03:12:20.171Z,100.00
2018-05-12T03:14:48.598Z,100.00
2018-05-12T03:17:17.323Z,100.00
2018-05-12T03:19:46.028Z,100.00
2018-05-12T03:22:14.488Z,100.00
2018-05-12T03:24:42.913Z,100.00
2018-05-12T03:27:11.559Z,100.00
2018-05-12T03:29:40.137Z,100.00
2018-05-12T03:32:08.860Z,100.00
2018-05-12T03:34:37.271Z,100.00
2018-05-12T03:37:06.067Z,100.00
2018-05-12T03:39:34.844Z,100.00
2018-05-12T03:42:03.390Z,100.00
2018-05-12T03:44:32.720Z,100.00
2018-05-12T03:47:01.315Z,100.00
2018-05-12T03:49:30.755Z,100.00
2018-05-12T03:51:59.489Z,100.00
2018-05-12T03:54:28.642Z,100.00
2018-05-12T03:56:57.350Z,100.00
2018-05-12T03:59:27.220Z,100.00
2018-05-12T04:05:02.809Z,100.00
2018-05-12T04:08:45.896Z,100.00
2018-05-12T04:11:23.283Z,100.00
2018-05-12T04:13:51.706Z,100.00
2018-05-12T04:16:20.052Z,100.00
2018-05-12T04:18:48.443Z,100.00
2018-05-12T04:21:16.903Z,100.00
2018-05-12T04:23:45.376Z,100.00
2018-05-12T04:26:13.711Z,100.00
2018-05-12T04:28:48.581Z,100.00
2018-05-12T04:31:16.930Z,100.00
2018-05-12T04:33:45.260Z,100.00
2018-05-12T04:36:13.956Z,100.00
2018-05-12T04:38:42.276Z,100.00
2018-05-12T04:41:10.795Z,100.00
2018-05-12T04:43:39.095Z,100.00
2018-05-12T04:46:07.583Z,100.00
2018-05-12T04:48:35.891Z,100.00
2018-05-12T04:51:04.346Z,100.00
2018-05-12T04:53:32.628Z,100.00
2018-05-12T04:56:00.996Z,100.00
2018-05-12T04:58:29.295Z,100.00
2018-05-12T05:00:57.733Z,100.00
2018-05-12T05:03:26.077Z,100.00
2018-05-12T05:05:54.468Z,100.00
2018-05-12T05:08:22.768Z,100.00
2018-05-12T05:10:51.103Z,100.00
2018-05-12T05:13:19.515Z,100.00
2018-05-12T05:15:47.873Z,100.00
2018-05-12T05:18:16.172Z,100.00
2018-05-12T05:20:44.521Z,100.00
2018-05-12T05:23:12.932Z,100.00
2018-05-12T05:25:41.291Z,100.00
2018-05-12T05:28:09.792Z,100.00
2018-05-12T05:30:38.590Z,100.00
2018-05-12T05:33:06.899Z,99.72
2018-05-12T05:35:35.238Z,99.53
2018-05-12T05:38:03.747Z,99.36
2018-05-12T05:40:32.113Z,98.76
2018-05-12T05:43:00.418Z,98.60
2018-05-12T05:45:28.878Z,97.59
2018-05-12T05:47:57.247Z,96.68
2018-05-12T05:50:25.807Z,95.25
2018-05-12T05:52:54.124Z,95.37
2018-05-12T05:55:22.456Z,94.82
2018-05-12T05:57:50.953Z,94.46
2018-05-12T06:00:19.333Z,93.73
2018-05-12T06:02:47.647Z,91.86
2018-05-12T06:05:16.212Z,92.57
2018-05-12T06:07:44.722Z,93.08
2018-05-12T06:10:13.160Z,91.62
2018-05-12T06:12:41.423Z,92.75
2018-05-12T06:15:09.756Z,91.67
2018-05-12T06:17:38.270Z,91.08
2018-05-12T06:20:06.802Z,93.87
2018-05-12T06:22:35.124Z,91.38
2018-05-12T06:25:03.656Z,91.99
2018-05-12T06:27:32.005Z,91.32
2018-05-12T06:30:00.344Z,90.57
2018-05-12T06:32:28.674Z,90.70
2018-05-12T06:34:57.004Z,91.74
2018-05-12T06:37:25.669Z,88.91
2018-05-12T06:39:54.167Z,88.53
2018-05-12T06:42:24.751Z,87.53
2018-05-12T06:44:53.136Z,88.98
2018-05-12T06:47:21.448Z,88.79
2018-05-12T06:49:49.788Z,90.36
2018-05-12T06:52:18.274Z,89.61
2018-05-12T06:54:46.825Z,89.51
2018-05-12T06:57:15.151Z,86.52
2018-05-12T06:59:43.488Z,85.59
2018-05-12T07:02:11.808Z,85.65
2018-05-12T07:04:40.107Z,87.49
2018-05-12T07:07:08.531Z,86.44
2018-05-12T07:09:36.989Z,85.97
2018-05-12T07:12:06.436Z,86.15
2018-05-12T07:14:34.751Z,86.76
2018-05-12T07:17:04.260Z,85.28
2018-05-12T07:19:32.892Z,84.69
2018-05-12T07:22:01.254Z,85.24
2018-05-12T07:24:29.536Z,84.61
2018-05-12T07:27:00.976Z,83.52
2018-05-12T07:29:29.294Z,82.73
2018-05-12T07:31:57.856Z,81.03
2018-05-12T07:34:26.246Z,80.00
2018-05-12T07:36:54.682Z,79.59
2018-05-12T07:39:23.703Z,79.04
2018-05-12T07:41:52.062Z,77.56
2018-05-12T07:44:20.357Z,73.33
2018-05-12T07:46:48.697Z,72.97
2018-05-12T07:49:17.140Z,73.77
2018-05-12T07:51:46.282Z,72.47
2018-05-12T07:54:14.711Z,70.49
2018-05-12T07:56:43.265Z,70.77
2018-05-12T07:59:11.615Z,71.99
2018-05-12T08:01:39.971Z,70.08
2018-05-12T08:04:08.420Z,72.66
2018-05-12T08:06:36.779Z,72.66
2018-05-12T08:09:05.358Z,70.16
2018-05-12T08:11:33.707Z,70.06
2018-05-12T08:14:02.111Z,69.51
2018-05-12T08:16:30.440Z,71.96
2018-05-12T08:18:58.915Z,70.92
2018-05-12T08:21:28.762Z,70.32
2018-05-12T08:23:57.796Z,71.79
2018-05-12T08:26:26.188Z,69.31
2018-05-12T08:28:54.628Z,70.04
2018-05-12T08:31:23.004Z,68.43
2018-05-12T08:33:51.355Z,68.00
2018-05-12T08:36:19.687Z,67.18
2018-05-12T08:38:48.150Z,70.25
2018-05-12T08:41:16.507Z,71.45
2018-05-12T08:43:44.892Z,69.20
2018-05-12T08:46:13.439Z,69.87
2018-05-12T08:48:41.857Z,69.41
2018-05-12T08:51:10.197Z,68.32
2018-05-12T08:53:38.503Z,67.16
2018-05-12T08:56:07.012Z,65.06
2018-05-12T08:58:35.344Z,66.04
2018-05-12T09:01:03.707Z,64.87
2018-05-12T09:03:33.666Z,65.00
2018-05-12T09:06:02.552Z,63.87
2018-05-12T09:08:31.277Z,66.51
2018-05-12T09:10:59.619Z,63.42
2018-05-12T09:13:28.359Z,64.64
2018-05-12T09:15:57.471Z,66.08
2018-05-12T09:18:25.804Z,65.67
2018-05-12T09:20:54.272Z,65.57
2018-05-12T09:23:22.625Z,65.44
2018-05-12T09:25:50.950Z,61.54
2018-05-12T09:28:20.327Z,61.50
2018-05-12T09:30:48.656Z,60.05
2018-05-12T09:33:16.997Z,59.68
2018-05-12T09:35:47.154Z,60.13
2018-05-12T09:38:16.848Z,61.40
2018-05-12T09:40:46.702Z,60.68
2018-05-12T09:43:15.468Z,62.48
2018-05-12T09:45:43.834Z,61.71
2018-05-12T09:48:13.087Z,63.11
2018-05-12T09:50:42.691Z,62.41
2018-05-12T09:53:10.986Z,62.22
2018-05-12T09:55:39.375Z,59.23
2018-05-12T09:58:07.925Z,59.41
2018-05-12T10:00:36.952Z,60.44
2018-05-12T10:03:05.311Z,60.75
2018-05-12T10:05:34.132Z,61.78
2018-05-12T10:08:02.769Z,62.07
2018-05-12T10:10:32.026Z,62.03
2018-05-12T10:13:02.340Z,62.64
2018-05-12T10:15:30.997Z,62.31
2018-05-12T10:17:59.423Z,61.88
2018-05-12T10:20:27.802Z,60.63
2018-05-12T10:22:56.194Z,61.39
2018-05-12T10:25:24.824Z,61.65
2018-05-12T10:27:53.698Z,61.61
2018-05-12T10:30:22.000Z,60.07
2018-05-12T10:32:50.335Z,59.85
2018-05-12T10:35:18.659Z,59.63
2018-05-12T10:37:49.119Z,62.00
2018-05-12T10:40:19.025Z,62.56
2018-05-12T10:42:47.337Z,61.29
2018-05-12T10:45:15.696Z,60.33
2018-05-12T10:47:44.024Z,60.46
2018-05-12T10:50:12.431Z,61.36
2018-05-12T10:52:40.908Z,60.88
2018-05-12T10:55:09.270Z,59.38
2018-05-12T10:57:38.371Z,61.06
2018-05-12T11:00:06.739Z,61.41
2018-05-12T11:02:35.076Z,60.75
2018-05-12T11:05:03.422Z,61.42
2018-05-12T11:07:31.791Z,61.27
2018-05-12T11:10:00.085Z,61.43
2018-05-12T11:12:28.431Z,63.12
2018-05-12T11:17:24.057Z,62.36
2018-05-12T11:19:52.346Z,62.22
2018-05-12T11:22:20.852Z,60.52
2018-05-12T11:24:49.200Z,61.57
2018-05-12T11:27:17.749Z,60.32
2018-05-12T11:29:46.172Z,58.13
2018-05-12T11:32:14.564Z,56.98
2018-05-12T11:34:42.865Z,56.65
2018-05-12T11:37:11.203Z,58.05
2018-05-12T11:39:39.575Z,60.22
2018-05-12T11:42:07.963Z,56.99
2018-05-12T11:44:36.410Z,55.21
2018-05-12T11:47:04.683Z,56.19
2018-05-12T11:49:32.989Z,55.64
2018-05-12T11:52:01.472Z,52.49
2018-05-12T11:54:29.795Z,53.59
2018-05-12T11:56:58.130Z,55.46
2018-05-12T11:59:26.437Z,55.27
2018-05-12T12:01:54.911Z,56.66
2018-05-12T12:04:23.266Z,56.46
2018-05-12T12:06:51.607Z,52.91
2018-05-12T12:09:19.921Z,52.95
2018-05-12T12:11:48.259Z,50.48
2018-05-12T12:14:16.580Z,49.13
2018-05-12T12:16:44.912Z,50.95
2018-05-12T12:19:13.229Z,53.44
2018-05-12T12:21:41.601Z,53.48
2018-05-12T12:24:09.907Z,52.17
2018-05-12T12:26:38.237Z,53.45
2018-05-12T12:29:06.578Z,52.96
2018-05-12T12:31:34.939Z,53.84
2018-05-12T12:34:03.232Z,54.64
2018-05-12T12:36:31.611Z,49.54
2018-05-12T12:39:01.232Z,50.77
2018-05-12T12:41:29.857Z,45.80
2018-05-12T12:43:58.153Z,45.63
2018-05-12T12:46:26.499Z,42.60
2018-05-12T12:48:55.237Z,42.62
2018-05-12T12:51:23.564Z,48.68
2018-05-12T12:53:51.860Z,51.46
2018-05-12T12:56:20.178Z,42.46
2018-05-12T12:58:48.461Z,43.06
2018-05-12T13:01:17.020Z,38.66
2018-05-12T13:03:45.339Z,36.19
2018-05-12T13:06:20.533Z,40.74
2018-05-12T13:08:48.843Z,41.06
2018-05-12T13:11:17.343Z,44.44
2018-05-12T13:13:45.640Z,39.42
2018-05-12T13:16:13.960Z,35.70
2018-05-12T13:18:42.289Z,36.81
2018-05-12T13:21:10.608Z,37.33
2018-05-12T13:23:38.941Z,37.89
2018-05-12T13:26:07.320Z,42.71
2018-05-12T13:28:35.627Z,37.52
2018-05-12T13:31:03.943Z,36.42
2018-05-12T13:33:32.653Z,36.50
2018-05-12T13:36:01.468Z,34.27
2018-05-12T13:38:29.789Z,35.49
2018-05-12T13:40:58.096Z,36.73
2018-05-12T13:43:26.398Z,35.59
2018-05-12T13:45:54.716Z,40.62
2018-05-12T13:48:23.029Z,35.02
2018-05-12T13:50:51.353Z,34.88
2018-05-12T13:53:21.350Z,33.75
2018-05-12T13:55:50.654Z,35.50
2018-05-12T13:58:18.888Z,36.86
2018-05-12T14:00:47.191Z,35.20
2018-05-12T14:03:15.537Z,35.06
2018-05-12T14:05:43.944Z,34.21
2018-05-12T14:08:12.276Z,34.63
2018-05-12T14:10:40.635Z,36.09
2018-05-12T14:13:09.003Z,35.24
2018-05-12T14:15:37.343Z,34.97
2018-05-12T14:18:05.640Z,33.95
2018-05-12T14:20:33.983Z,34.33
2018-05-12T14:23:02.294Z,35.29
2018-05-12T14:25:30.677Z,34.97
2018-05-12T14:27:58.961Z,33.41
2018-05-12T14:30:27.279Z,40.50
2018-05-12T14:32:56.750Z,34.16
2018-05-12T14:35:25.508Z,33.34
2018-05-12T14:37:53.857Z,34.07
2018-05-12T14:40:22.196Z,34.38
2018-05-12T14:42:50.511Z,34.48
2018-05-12T14:45:18.855Z,33.62
2018-05-12T14:47:47.163Z,32.98
2018-05-12T14:50:15.566Z,32.13
2018-05-12T14:52:46.437Z,32.99
2018-05-12T14:55:14.981Z,32.84
2018-05-12T14:57:43.479Z,34.42
2018-05-12T15:00:11.873Z,39.63
2018-05-12T15:02:40.288Z,43.70
2018-05-12T15:05:08.695Z,41.85
2018-05-12T15:07:37.001Z,40.50
2018-05-12T15:10:05.659Z,35.01
2018-05-12T15:12:34.000Z,37.06
2018-05-12T15:15:02.315Z,41.09
2018-05-12T15:17:30.707Z,44.90
2018-05-12T15:19:59.048Z,46.35
2018-05-12T15:22:27.468Z,47.30
2018-05-12T15:24:55.764Z,48.98
2018-05-12T15:27:24.095Z,48.82
2018-05-12T15:29:52.371Z,49.54
2018-05-12T15:32:20.730Z,49.09
2018-05-12T15:34:49.424Z,51.46
2018-05-12T15:37:17.959Z,50.13
2018-05-12T15:39:46.487Z,49.07
2018-05-12T15:42:15.147Z,39.93
2018-05-12T15:44:43.959Z,41.68
2018-05-12T15:47:12.408Z,41.31
2018-05-12T15:49:40.708Z,39.30
2018-05-12T15:52:09.141Z,42.25
2018-05-12T15:54:37.455Z,42.59
2018-05-12T15:57:05.783Z,45.26
2018-05-12T15:59:34.094Z,48.52
2018-05-12T16:02:02.800Z,49.53
2018-05-12T16:04:31.459Z,43.18
2018-05-12T16:07:00.282Z,40.80
2018-05-12T16:09:28.868Z,41.65
2018-05-12T16:11:57.182Z,44.92
2018-05-12T16:14:25.478Z,45.00
2018-05-12T16:16:53.780Z,42.73
2018-05-12T16:19:22.272Z,47.01
2018-05-12T16:21:50.605Z,47.92
2018-05-12T16:24:18.969Z,49.98
2018-05-12T16:26:47.301Z,48.35
2018-05-12T16:29:15.733Z,46.99
2018-05-12T16:31:44.061Z,49.11
2018-05-12T16:34:13.056Z,50.84
2018-05-12T16:36:42.719Z,52.75
2018-05-12T16:39:11.080Z,53.59
2018-05-12T16:41:39.409Z,52.76
2018-05-12T16:44:07.741Z,53.10
2018-05-12T16:46:36.103Z,52.91
2018-05-12T16:49:05.462Z,54.51
2018-05-12T16:51:34.123Z,54.12
2018-05-12T16:54:02.449Z,54.28
2018-05-12T16:56:30.803Z,55.28
2018-05-12T16:58:59.177Z,56.22
2018-05-12T17:01:27.644Z,56.76
2018-05-12T17:03:56.171Z,56.07
2018-05-12T17:06:24.585Z,55.30
2018-05-12T17:08:52.859Z,56.50
2018-05-12T17:11:21.211Z,54.79
2018-05-12T17:13:49.707Z,55.28
2018-05-12T17:16:18.039Z,55.83
2018-05-12T17:18:46.328Z,56.36
2018-05-12T17:21:15.334Z,57.05
2018-05-12T17:23:44.029Z,57.69
2018-05-12T17:26:12.340Z,56.92
2018-05-12T17:28:40.601Z,57.47
2018-05-12T17:31:08.923Z,58.42
2018-05-12T17:33:37.648Z,58.39
2018-05-12T17:36:05.961Z,57.72
2018-05-12T17:38:34.287Z,58.82
2018-05-12T17:41:02.623Z,58.81
2018-05-12T17:43:30.935Z,59.51
2018-05-12T17:45:59.366Z,59.60
2018-05-12T17:48:27.660Z,59.76
2018-05-12T17:50:55.985Z,59.64
2018-05-12T17:53:24.413Z,59.67
2018-05-12T17:55:52.773Z,60.77
2018-05-12T17:58:21.205Z,60.83
2018-05-12T18:00:49.667Z,61.60
2018-05-12T18:03:18.229Z,62.52
2018-05-12T18:05:47.007Z,62.90
2018-05-12T18:08:15.300Z,61.93
2018-05-12T18:10:43.640Z,63.01
2018-05-12T18:13:11.976Z,63.94
2018-05-12T18:15:41.225Z,64.31
2018-05-12T18:18:09.881Z,64.30
2018-05-12T18:20:38.210Z,63.91
2018-05-12T18:23:06.524Z,65.12
2018-05-12T18:25:34.873Z,64.38
2018-05-12T18:28:03.332Z,65.04
2018-05-12T18:30:31.980Z,65.54
2018-05-12T18:33:00.407Z,66.02
2018-05-12T18:35:29.100Z,66.03
2018-05-12T18:37:58.275Z,66.03
2018-05-12T18:40:26.785Z,66.41
2018-05-12T18:42:55.121Z,66.55
2018-05-12T18:45:24.426Z,67.60
2018-05-12T18:47:52.893Z,67.92
2018-05-12T18:50:21.276Z,68.06
2018-05-12T18:52:49.622Z,68.73
2018-05-12T18:55:17.940Z,68.82
2018-05-12T18:57:46.239Z,69.61
2018-05-12T19:00:14.833Z,70.31
2018-05-12T19:02:43.650Z,69.61
2018-05-12T19:05:12.203Z,69.62
2018-05-12T19:07:40.618Z,69.69
2018-05-12T19:10:10.242Z,69.83
2018-05-12T19:12:39.422Z,69.83
2018-05-12T19:15:07.860Z,70.85
2018-05-12T19:17:36.403Z,70.72
2018-05-12T19:20:04.832Z,71.33
2018-05-12T19:22:33.568Z,71.32
2018-05-12T19:25:01.899Z,71.15
2018-05-12T19:27:30.263Z,72.58
2018-05-12T19:29:58.605Z,72.07
2018-05-12T19:32:26.963Z,72.43
2018-05-12T19:34:55.287Z,72.87
2018-05-12T19:37:23.807Z,73.34
2018-05-12T19:39:52.480Z,72.58
2018-05-12T19:42:20.827Z,72.83
2018-05-12T19:44:49.132Z,72.99
2018-05-12T19:47:17.511Z,72.14
2018-05-12T19:49:45.811Z,72.46
2018-05-12T19:52:14.164Z,72.92
2018-05-12T19:54:42.470Z,72.96
2018-05-12T19:57:10.827Z,73.10
2018-05-12T19:59:39.829Z,73.60
2018-05-12T20:02:14.000Z,73.06
2018-05-12T20:04:42.687Z,73.57
2018-05-12T20:07:11.515Z,73.83
2018-05-12T20:09:39.845Z,74.01
2018-05-12T20:12:08.240Z,74.22
2018-05-12T20:14:36.549Z,74.00
2018-05-12T20:17:04.864Z,74.17
2018-05-12T20:19:33.366Z,74.61
2018-05-12T20:22:01.685Z,74.53
2018-05-12T20:24:29.971Z,75.22
2018-05-12T20:26:58.307Z,75.61
2018-05-12T20:29:26.764Z,75.76
2018-05-12T20:31:55.124Z,76.15
2018-05-12T20:34:23.409Z,76.11
2018-05-12T20:36:51.761Z,76.04
2018-05-12T20:39:20.060Z,76.18
2018-05-12T20:41:49.308Z,76.11
2018-05-12T20:44:17.717Z,77.96
2018-05-12T20:46:46.160Z,76.93
2018-05-12T20:49:14.608Z,77.39
2018-05-12T20:51:42.950Z,77.75
2018-05-12T20:54:11.274Z,77.66
2018-05-12T20:56:39.603Z,78.26
2018-05-12T20:59:07.995Z,77.88
2018-05-12T21:01:36.398Z,77.82
2018-05-12T21:04:04.899Z,78.36
2018-05-12T21:06:33.293Z,78.57
2018-05-12T21:09:01.614Z,78.36
2018-05-12T21:11:29.947Z,78.22
2018-05-12T21:13:58.265Z,77.67
2018-05-12T21:16:26.643Z,78.14
2018-05-12T21:18:55.121Z,77.69
2018-05-12T21:21:23.463Z,78.24
2018-05-12T21:23:52.114Z,77.56
2018-05-12T21:26:20.438Z,77.21
2018-05-12T21:28:48.989Z,77.54
2018-05-12T21:31:17.396Z,76.73
2018-05-12T21:33:45.747Z,77.31
2018-05-12T21:36:14.083Z,77.10
2018-05-12T21:38:42.400Z,77.60
2018-05-12T21:41:10.738Z,78.02
2018-05-12T21:43:39.044Z,77.33
2018-05-12T21:46:07.458Z,77.80
2018-05-12T21:48:35.694Z,78.02
2018-05-12T21:51:04.088Z,78.27
2018-05-12T21:53:32.545Z,78.45
2018-05-12T21:56:00.879Z,79.03
2018-05-12T21:58:29.689Z,79.01
2018-05-12T22:00:58.759Z,79.64
2018-05-12T22:03:27.148Z,80.04
2018-05-12T22:05:55.624Z,80.20
2018-05-12T22:08:24.115Z,80.00
2018-05-12T22:10:52.441Z,80.41
2018-05-12T22:13:20.748Z,81.19
2018-05-12T22:15:49.119Z,81.69
2018-05-12T22:18:17.580Z,81.94
2018-05-12T22:20:46.198Z,82.01
2018-05-12T22:23:14.539Z,82.53
2018-05-12T22:25:42.863Z,82.49
2018-05-12T22:28:11.188Z,82.70
2018-05-12T22:30:39.515Z,83.54
2018-05-12T22:33:07.910Z,83.39
2018-05-12T22:35:36.232Z,83.98
2018-05-12T22:38:04.551Z,84.32
2018-05-12T22:40:32.935Z,84.67
2018-05-12T22:43:01.377Z,84.53
2018-05-12T22:45:29.811Z,83.84
2018-05-12T22:47:58.172Z,83.85
2018-05-12T22:50:26.628Z,84.30
2018-05-12T22:52:54.990Z,84.17
2018-05-12T22:55:23.399Z,84.54
2018-05-12T22:57:52.032Z,84.56
2018-05-12T23:00:20.580Z,84.32
2018-05-12T23:02:48.887Z,85.15
2018-05-12T23:05:17.255Z,84.21
2018-05-12T23:07:45.747Z,85.00
2018-05-12T23:10:14.131Z,84.96
2018-05-12T23:12:42.516Z,85.46
2018-05-12T23:15:10.839Z,85.46
2018-05-12T23:17:39.139Z,85.25
2018-05-12T23:20:07.462Z,86.24
2018-05-12T23:22:35.807Z,86.05
2018-05-12T23:25:04.224Z,86.37
2018-05-12T23:27:32.576Z,86.65
2018-05-12T23:30:00.882Z,86.63
2018-05-12T23:32:29.251Z,86.78
2018-05-12T23:34:57.547Z,87.35
2018-05-12T23:37:25.912Z,87.56
2018-05-12T23:39:54.226Z,87.87
2018-05-12T23:42:22.645Z,87.62
2018-05-12T23:44:51.056Z,88.64
2018-05-12T23:47:19.400Z,88.23
2018-05-12T23:49:47.696Z,88.13
2018-05-12T23:52:16.076Z,88.65
2018-05-12T23:54:44.364Z,88.85
2018-05-12T23:57:12.715Z,88.90
2018-05-12T23:59:41.193Z,88.66
